Latest Coastal Weather Observations for Swan Island

IDT60701

Issued at 11:41 pm EDT Monday 2 March 2015 (issued every 10 minutes, with the page automatically refreshed every 10 minutes)

About coastal observations | Map of coastal stations | Coastal observations for TAS | Marine services | Other Formats
Station Details ID: 092123 Name: SWAN ISLAND Lat: -40.73 Lon: 148.12 Height: 15.0 m
Data from the previous 72 hours. | See also: Recent months at Swan Island
Date/Time
EDT
Temp

°C
Wind Pressure Rain
since 9am
mm
Weather Cloud Vis
km
Sea
Height
m
Swell
Dir
 
Speed
knots
Gust
knots
hPa Trend Height
m
Period
s
Dir
02/11:30pm 16.2 W 9 13 1014.8 - 0.0 - - - - - - -
02/11:00pm 16.5 WNW 9 13 1015.1 - 0.0 - - - - - - -
02/10:30pm 16.5 WNW 9 13 1015.1 - 0.0 - - - - - - -
02/10:00pm 16.5 WNW 9 13 1015.0 - 0.0 - - - - - - -
02/09:30pm 16.4 WNW 8 11 1015.0 - 0.0 - - - - - - -
02/09:00pm 16.5 WNW 10 13 1015.1 - 0.0 - - - - - - -
02/08:30pm 16.6 NW 9 12 1014.7 - 0.0 - - - - - - -
02/08:00pm 16.4 NW 9 12 1014.8 - 0.0 - - - - - - -
02/07:30pm 16.5 WNW 9 12 1014.8 - 0.0 - - - - - - -
02/07:00pm 16.6 WNW 7 10 1014.5 - 0.0 - - - - - - -
02/06:30pm 16.9 WNW 9 12 1014.8 - 0.0 - - - - - - -
02/06:00pm 16.9 WNW 7 11 1014.7 - 0.0 - - - - - - -
02/05:30pm 17.8 WNW 6 10 1014.3 - 0.0 - - - - - - -
02/05:00pm 17.8 WNW 6 10 1014.7 - 0.0 - - - - - - -
02/04:30pm 18.0 WNW 8 11 1015.1 - 0.0 - - - - - - -
02/04:00pm 19.1 WNW 8 12 1015.1 - 0.0 - - - - - - -
02/03:30pm 19.2 WNW 7 11 1015.6 - 0.0 - - - - - - -
02/03:00pm 19.7 W 10 13 1016.0 - 0.0 - - - - - - -
02/02:30pm 19.1 W 9 13 1016.1 - 0.0 - - - - - - -
02/02:00pm 20.3 WNW 8 12 1016.6 - 0.0 - - - - - - -
02/01:30pm 19.9 WNW 5 9 1016.9 - 0.0 - - - - - - -
02/01:00pm 20.0 WNW 6 10 1017.3 - 0.0 - - - - - - -
02/12:30pm 19.4 NW 7 10 1018.0 - 0.0 - - - - - - -
02/12:00pm 18.2 NNE 4 6 1018.7 - 0.0 - - - - - - -
02/11:30am 18.7 ENE 5 7 1018.6 - 0.0 - - - - - - -
02/11:00am 18.5 E 8 10 1018.6 - 0.0 - - - - - - -
02/10:30am 18.2 ENE 8 10 1018.7 - 0.0 - - - - - - -
02/10:00am 17.9 E 8 10 1018.8 - 0.0 - - - - - - -
02/09:30am 17.6 E 8 11 1018.9 - 0.0 - - - - - - -
02/09:00am 16.1 E 9 11 1018.7 - 2.6 - - - - - - -
02/08:30am 16.1 E 10 12 1018.5 - 2.6 - - - - - - -
02/08:00am 15.9 E 11 14 1018.4 - 2.6 - - - - - - -
02/07:30am 15.8 ENE 12 14 1018.3 - 2.6 - - - - - - -
02/07:00am 16.3 E 11 14 1017.8 - 2.6 - - - - - - -
02/06:30am 15.9 ESE 13 15 1017.5 - 2.6 - - - - - - -
02/06:00am 15.9 ESE 14 16 1017.4 - 2.6 - - - - - - -
02/05:30am 16.0 ESE 12 15 1017.4 - 2.6 - - - - - - -
02/05:00am 15.8 SE 11 13 1017.6 - 2.6 - - - - - - -
02/04:30am 15.8 ESE 11 13 1017.3 - 2.6 - - - - - - -
02/04:00am 15.7 ESE 10 13 1017.5 - 2.6 - - - - - - -
02/03:30am 15.8 ESE 11 14 1017.0 - 2.6 - - - - - - -
02/03:00am 16.0 E 12 15 1016.9 - 2.6 - - - - - - -
02/02:30am 15.7 ESE 14 16 1016.8 - 2.6 - - - - - - -
02/02:00am 15.6 ESE 12 15 1016.6 - 2.6 - - - - - - -
02/01:30am 15.7 E 13 15 1016.6 - 2.2 - - - - - - -
02/01:00am 15.7 ESE 14 17 1016.5 - 2.2 - - - - - - -
02/12:30am 16.5 E 14 17 1016.3 - 2.2 - - - - - - -
02/12:00am 16.7 E 13 15 1016.5 - 2.2 - - - - - - -
 
Date/Time
EDT
Temp

°C
Wind Pressure Rain
since 9am
mm
Weather Cloud Vis
km
Sea
Height
m
Swell
Dir
 
Speed
knots
Gust
knots
hPa Trend Height
m
Period
s
Dir
01/11:30pm 16.9 ESE 13 15 1016.4 - 2.2 - - - - - - -
01/11:00pm 17.1 E 14 16 1016.2 - 2.2 - - - - - - -
01/10:30pm 17.0 E 14 16 1016.1 - 2.2 - - - - - - -
01/10:00pm 17.0 E 13 15 1015.7 - 2.2 - - - - - - -
01/09:30pm 17.0 E 12 15 1015.3 - 2.2 - - - - - - -
01/09:00pm 16.9 E 12 14 1015.0 - 2.2 - - - - - - -
01/08:30pm 16.9 E 12 15 1014.5 - 2.2 - - - - - - -
01/08:00pm 17.0 E 12 14 1013.9 - 2.2 - - - - - - -
01/07:30pm 17.1 E 11 14 1013.2 - 2.2 - - - - - - -
01/07:00pm 16.4 SSE 2 4 1013.1 - 2.2 - - - - - - -
01/06:30pm 16.2 SSE 4 6 1012.7 - 2.2 - - - - - - -
01/06:00pm 15.8 S 10 19 1012.4 - 1.8 Rain - - - - - -
01/05:30pm 19.9 W 16 24 1011.2 - 0.0 - - - - - - -
01/05:00pm 20.2 W 19 27 1010.5 - 0.0 - - - - - - -
01/04:30pm 20.3 W 20 28 1010.0 - 0.0 - - - - - - -
01/04:00pm 20.4 W 22 28 1009.7 - 0.0 - - - - - - -
01/03:30pm 20.9 W 20 26 1009.5 - 0.0 - - - - - - -
01/03:17pm 21.2 W 16 26 1009.4 - 0.0 - - - - - - -
01/03:00pm 20.8 WNW 15 23 1009.2 - 0.0 - - - - - - -
01/02:30pm 20.7 WNW 16 23 1009.1 - 0.0 - - - - - - -
01/02:00pm 21.0 W 17 24 1008.7 - 0.0 - - - - - - -
01/01:30pm 20.2 WNW 14 21 1008.3 - 0.0 - - - - - - -
01/01:00pm 21.1 WNW 15 22 1008.0 - 0.0 - - - - - - -
01/12:30pm 20.9 W 14 20 1007.9 - 0.0 - - - - - - -
01/12:00pm 20.2 W 15 20 1007.8 - 0.0 - - - - - - -
01/11:30am 19.4 W 13 18 1007.4 - 0.0 - - - - - - -
01/11:00am 18.8 W 11 18 1007.0 - 0.0 - - - - - - -
01/10:30am 18.3 W 13 20 1006.4 - 0.0 - - - - - - -
01/10:00am 17.8 W 10 18 1005.9 - 0.0 - - - - - - -
01/09:30am 17.2 WSW 10 15 1005.5 - 0.0 - - - - - - -
01/09:00am 15.8 W 14 19 1004.8 - 21.2 - - - - - - -
01/08:30am 15.3 W 12 19 1004.2 - 21.2 - - - - - - -
01/08:00am 14.9 WSW 11 19 1003.7 - 21.2 - - - - - - -
01/07:30am 14.6 WSW 12 19 1003.2 - 21.2 - - - - - - -
01/07:00am 14.9 W 9 14 1002.6 - 21.2 - - - - - - -
01/06:30am 15.4 W 11 17 1001.8 - 21.2 - - - - - - -
01/06:00am 15.7 W 16 23 1001.4 - 21.2 - - - - - - -
01/05:30am 15.5 W 17 24 1000.9 - 21.2 - - - - - - -
01/05:00am 15.7 W 14 20 1000.7 - 21.2 - - - - - - -
01/04:30am 16.2 WNW 12 17 1000.6 - 21.2 - - - - - - -
01/04:00am 14.9 WNW 10 16 1000.8 - 21.2 - - - - - - -
01/03:30am 14.6 W 16 28 1001.6 - 20.6 - - - - - - -
01/03:21am 15.2 W 18 28 1001.6 - 20.4 - - - - - - -
01/03:00am 16.7 W 15 20 1001.4 - 20.0 Rain - - - - - -
01/02:30am 16.9 NW 14 19 1001.4 - 18.0 - - - - - - -
01/02:00am 18.4 NNW 11 16 1001.3 - 13.4 - - - - - - -
01/01:30am 17.9 WNW 12 16 1002.2 - 12.2 - - - - - - -
01/01:00am 18.0 WNW 9 13 1002.1 - 11.0 - - - - - - -
01/12:30am 18.2 WNW 11 15 1002.6 - 10.2 - - - - - - -
01/12:00am 18.5 WNW 14 18 1003.0 - 8.0 Rain - - - - - -
 
Date/Time
EDT
Temp

°C
Wind Pressure Rain
since 9am
mm
Weather Cloud Vis
km
Sea
Height
m
Swell
Dir
 
Speed
knots
Gust
knots
hPa Trend Height
m
Period
s
Dir
28/11:30pm 18.6 WNW 13 20 1002.8 - 5.4 - - - - - - -
28/11:00pm 18.7 NW 12 16 1002.7 - 4.2 - - - - - - -
28/10:30pm 18.9 NNW 12 15 1002.1 - 4.0 - - - - - - -
28/10:00pm 19.6 NNW 10 11 1002.2 - 1.0 - - - - - - -
28/09:30pm 19.5 NNW 12 15 1001.6 - 1.0 - - - - - - -
28/09:00pm 19.5 NNW 13 15 1001.4 - 1.0 - - - - - - -
28/08:30pm 19.4 NNW 16 19 1001.1 - 1.0 - - - - - - -
28/08:00pm 19.4 NNW 14 17 1001.2 - 1.0 - - - - - - -
28/07:30pm 19.3 NNW 15 18 1001.4 - 1.0 - - - - - - -
28/07:00pm 19.3 NNW 14 17 1001.6 - 1.0 - - - - - - -
28/06:30pm 19.1 NNW 14 16 1001.5 - 1.0 - - - - - - -
28/06:00pm 19.1 NNW 14 16 1002.2 - 1.0 - - - - - - -
28/05:30pm 19.0 NNW 15 18 1002.6 - 1.0 - - - - - - -
28/05:00pm 18.3 NW 16 20 1002.8 - 1.0 - - - - - - -
28/04:30pm 18.6 NNW 16 20 1003.1 - 0.6 - - - - - - -
28/04:00pm 18.8 NNW 18 22 1003.5 - 0.0 - - - - - - -
28/03:30pm 19.3 NW 17 20 1003.8 - 0.0 - - - - - - -
28/03:00pm 19.7 NW 9 13 1004.0 - 0.0 - - - - - - -
28/02:30pm 20.3 WNW 8 13 1004.3 - 0.0 - - - - - - -
28/02:00pm 20.2 NW 5 7 1004.3 - 0.0 - - - - - - -
28/01:30pm 20.8 NW 9 13 1004.6 - 0.0 - - - - - - -
28/01:00pm 20.8 NW 6 9 1005.1 - 0.0 - - - - - - -
28/12:30pm 20.9 NNW 5 6 1005.4 - 0.0 - - - - - - -
28/12:00pm 19.4 NNW 6 8 1005.9 - 0.0 - - - - - - -
28/11:30am 18.4 NNW 6 7 1006.4 - 0.0 - - - - - - -
28/11:00am 20.0 NNW 5 7 1006.5 - 0.0 - - - - - - -
28/10:30am 19.6 NNW 5 6 1007.0 - 0.0 - - - - - - -
28/10:00am 18.9 NNW 2 3 1007.1 - 0.0 - - - - - - -
28/09:30am 17.8 ESE 2 4 1007.0 - 0.0 - - - - - - -
28/09:00am 18.0 SE 3 5 1007.1 - 0.0 - - - - - - -
28/08:30am 16.8 S 4 5 1007.1 - 0.0 - - - - - - -
28/08:00am 15.8 SW 2 3 1007.1 - 0.0 - - - - - - -
28/07:30am 15.5 S 3 5 1007.6 - 0.0 - - - - - - -
28/07:00am 15.4 SSE 6 7 1007.5 - 0.0 - - - - - - -
28/06:30am 15.7 SE 7 9 1007.7 - 0.0 - - - - - - -
28/06:00am 15.5 SE 8 10 1007.7 - 0.0 - - - - - - -
28/05:30am 15.4 SE 10 12 1007.6 - 0.0 - - - - - - -
28/05:00am 15.4 SSE 8 10 1008.3 - 0.0 - - - - - - -
28/04:30am 15.4 SE 7 11 1008.3 - 0.0 - - - - - - -
28/04:00am 15.4 SSE 7 9 1008.7 - 0.0 - - - - - - -
28/03:30am 15.3 SSE 8 11 1009.0 - 0.0 - - - - - - -
28/03:00am 15.4 SSE 8 10 1009.0 - 0.0 - - - - - - -
28/02:30am 15.4 SE 8 10 1009.3 - 0.0 - - - - - - -
28/02:00am 15.7 SE 10 13 1009.1 - 0.0 - - - - - - -
28/01:30am 15.4 SE 7 10 1009.4 - 0.0 - - - - - - -
28/01:00am 14.9 S 2 3 1009.4 - 0.0 - - - - - - -
28/12:30am 15.1 SSW 3 5 1009.5 - 0.0 - - - - - - -
28/12:00am 15.7 WSW 4 6 1009.4 - 0.0 - - - - - - -

Other Formats:

Comma delimited format used in spreadsheet applications
http://www.bom.gov.au/fwo/IDT60701/IDT60701.95985.axf

JavaScript Object Notation format (JSON) in row-major order
http://www.bom.gov.au/fwo/IDT60701/IDT60701.95985.json